Thunder radar more information blitzortung!


Radar de pluja more information rain snow radar


Visita la nostra xarxa de llocs de meteo:

Template documentation
and downloads

And another site



No particular awareness of the weather is required.    There are no Weather-warnings

Pagina Historial Weather Underground text

Diari Resum February 4, 2018 Unitats:  Mètric    Imperial   Tant
« Previous Dia
SegĂźent Dia »
Diari Setmana Mensual Anual Personalitzada
  Maxima: Minima: Media:
Temperatura: -17.8 °C -15.6 °C -14.8 °C
Punt de rosada: -17.8 °C -18.3 °C -17.1 °C
Humitat: Humidity % 61 % 75 %
Wind Speed: 0 km/h 0 km/h 7.9 km/h
RĂ fegues de vent: 0 km/h - -
Vent:- - ENE
Pression baro: 0 hPa 34097 hPa -
Precipitacions: 670.56 mm    
Historical Graphs
 
 
Dades de taula per February 4, 2018
Temps Temperatura Punt de rosada Pression baro Vent Wind Speed RĂ fegues de vent Humitat Rainfall Rate (Hourly)
-17.8 °C -17.8 °C 0 hPa Calm     Humidity % 0 mm
00:04 -14 °C -17.9 °C 34198.6 hPa West 6 km/h 6 km/h 61 % 0 mm
00:09 -14.1 °C -17.9 °C 34198.6 hPa WSW 3.7 km/h 3.7 km/h 61 % 0 mm
00:14 -14 °C -17.9 °C 34198.6 hPa WSW 9.8 km/h 9.8 km/h 61 % 0 mm
00:19 -14.1 °C -17.9 °C 34198.6 hPa WSW 6 km/h 6 km/h 61 % 0 mm
00:24 -14.2 °C -18.1 °C 34198.6 hPa SW 3.1 km/h   61 % 0 mm
00:29 -14.2 °C -18.1 °C 34198.6 hPa Calm     61 % 0 mm
00:34 -14.2 °C -18.1 °C 34198.6 hPa WNW 3.7 km/h 3.7 km/h 61 % 0 mm
00:39 -14.2 °C -18.1 °C 34198.6 hPa WNW 9 km/h 9 km/h 61 % 0 mm
00:44 -14.2 °C -17.9 °C 34198.6 hPa WNW 6.8 km/h 6.8 km/h 62 % 0 mm
00:49 -14.3 °C -18.1 °C 34198.6 hPa SW 6 km/h 6 km/h 62 % 0 mm
00:54 -14.3 °C -18.1 °C 34198.6 hPa WNW 3.1 km/h   62 % 0 mm
00:59 -14.4 °C -18.2 °C 34222.3 hPa North 7.6 km/h 7.6 km/h 62 % 0 mm
01:04 -14.5 °C -18.1 °C 34222.3 hPa NNE 6 km/h 6 km/h 63 % 0 mm
01:09 -14.6 °C -18.2 °C 34222.3 hPa North 3.1 km/h 3.1 km/h 63 % 0 mm
01:14 -14.6 °C -18.2 °C 34198.6 hPa WNW 3.1 km/h 3.1 km/h 63 % 0 mm
01:19 -14.7 °C -18.3 °C 34198.6 hPa South 3.7 km/h   63 % 0 mm
01:24 -14.7 °C -18.3 °C 34198.6 hPa NNW 3.1 km/h   63 % 0 mm
01:29 -14.7 °C -18.3 °C 34198.6 hPa NNE 3.1 km/h 3.7 km/h 63 % 0 mm
01:34 -14.8 °C -18.3 °C 34198.6 hPa WNW 2.3 km/h   64 % 0 mm
01:39 -14.7 °C -18.2 °C 34198.6 hPa NNE 6 km/h 6 km/h 64 % 0 mm
01:44 -14.7 °C -18.2 °C 34198.6 hPa WNW 9 km/h 9 km/h 64 % 0 mm
01:49 -14.7 °C -18.2 °C 34198.6 hPa NNE 6.3 km/h 6.3 km/h 64 % 0 mm
01:54 -14.7 °C -18.2 °C 34198.6 hPa NNE 5.6 km/h   64 % 0 mm
01:59 -14.7 °C -18.2 °C 34198.6 hPa NNE 6 km/h 6 km/h 64 % 0 mm
02:04 -14.7 °C -18.2 °C 34198.6 hPa NNE 6 km/h   64 % 0 mm
02:09 -14.7 °C -18 °C 34198.6 hPa NE 10.3 km/h 10.3 km/h 65 % 0 mm
02:14 -14.7 °C -18.1 °C 34198.6 hPa North 6.3 km/h 6.3 km/h 65 % 0 mm
02:19 -14.7 °C -18.1 °C 34198.6 hPa NW 6 km/h 6 km/h 65 % 0 mm
02:24 -14.7 °C -18.1 °C 34198.6 hPa NNE 6 km/h 6 km/h 65 % 0 mm
02:29 -14.7 °C -18 °C 34198.6 hPa NNE 6 km/h 6 km/h 65 % 0 mm
02:34 -14.7 °C -18 °C 34198.6 hPa NNW 9 km/h 9 km/h 65 % 0 mm
02:39 -14.6 °C -18 °C 34198.6 hPa NNE 11.9 km/h 11.9 km/h 65 % 0 mm
02:44 -14.6 °C -18 °C 34198.6 hPa NNE 12.7 km/h 12.7 km/h 65 % 0 mm
02:49 -14.6 °C -17.9 °C 34198.6 hPa North 15 km/h 15 km/h 66 % 0 mm
02:54 -14.6 °C -17.9 °C 34198.6 hPa NNE 9 km/h 9 km/h 66 % 0 mm
02:59 -14.6 °C -17.9 °C 34198.6 hPa NNW 3.7 km/h   66 % 0 mm
03:04 -14.6 °C -18 °C 34198.6 hPa NNE 6.3 km/h 6.3 km/h 65 % 0 mm
03:09 -14.7 °C -17.9 °C 34198.6 hPa NNE 6 km/h 6 km/h 66 % 0 mm
03:14 -14.7 °C -17.9 °C 34198.6 hPa East 6 km/h 6 km/h 66 % 0 mm
03:19 -14.6 °C -17.9 °C 34198.6 hPa North 5.1 km/h   66 % 0 mm
03:24 -14.6 °C -17.9 °C 34198.6 hPa NE 11.9 km/h 11.9 km/h 66 % 0 mm
03:29 -14.6 °C -17.9 °C 34198.6 hPa NNE 7.6 km/h 7.6 km/h 66 % 0 mm
03:34 -14.6 °C -17.8 °C 34198.6 hPa NNE 11.9 km/h 11.9 km/h 66 % 0 mm
03:39 -14.6 °C -17.9 °C 34198.6 hPa NE 6 km/h 6 km/h 66 % 0 mm
03:44 -14.6 °C -17.9 °C 34164.7 hPa NNE 5.1 km/h 5.1 km/h 66 % 0 mm
03:49 -14.6 °C -17.9 °C 34164.7 hPa NNW 9 km/h 9 km/h 66 % 0 mm
03:54 -14.6 °C -17.9 °C 34164.7 hPa NE 11.9 km/h 11.9 km/h 66 % 0 mm
03:59 -14.6 °C -17.9 °C 34198.6 hPa NNE 10.3 km/h 10.3 km/h 66 % 0 mm
04:04 -14.6 °C -17.9 °C 34198.6 hPa NNW 6 km/h 6 km/h 66 % 0 mm
04:09 -14.6 °C -17.9 °C 34198.6 hPa NE 6 km/h 6 km/h 66 % 0 mm
04:14 -14.6 °C -17.9 °C 34198.6 hPa NNE 7.6 km/h 7.6 km/h 66 % 0 mm
04:19 -14.7 °C -17.9 °C 34198.6 hPa ENE 6 km/h 6 km/h 66 % 0 mm
04:24 -14.6 °C -17.9 °C 34198.6 hPa NNE 11.9 km/h 11.9 km/h 66 % 0 mm
04:29 -14.6 °C -17.9 °C 34198.6 hPa NNE 9 km/h 9 km/h 66 % 0 mm
04:34 -14.6 °C -17.9 °C 34198.6 hPa NE 6 km/h 6 km/h 66 % 0 mm
04:39 -14.6 °C -17.9 °C 34198.6 hPa NE 6.8 km/h 6.8 km/h 66 % 0 mm
04:44 -14.6 °C -17.8 °C 34198.6 hPa NNE 14.5 km/h 14.5 km/h 66 % 0 mm
04:49 -14.6 °C -17.8 °C 34198.6 hPa NNE 14 km/h 14 km/h 66 % 0 mm
04:54 -14.6 °C -17.9 °C 34198.6 hPa ENE 6 km/h 6 km/h 66 % 0 mm
04:59 -14.6 °C -17.9 °C 34164.7 hPa NNE 6 km/h 6 km/h 66 % 0 mm
05:04 -14.7 °C -17.9 °C 34164.7 hPa WSW 6 km/h 6 km/h 66 % 0 mm
05:09 -14.7 °C -17.9 °C 34164.7 hPa SSW 5.1 km/h   66 % 0 mm
05:14 -14.7 °C -17.9 °C 34198.6 hPa West 9 km/h 9 km/h 66 % 0 mm
05:19 -14.7 °C -17.9 °C 34198.6 hPa ENE 9 km/h 9 km/h 66 % 0 mm
05:24 -14.7 °C -17.9 °C 34198.6 hPa NNE 9 km/h 9 km/h 66 % 0 mm
05:29 -14.7 °C -17.9 °C 34222.3 hPa West 11.9 km/h 11.9 km/h 66 % 0 mm
05:34 -14.7 °C -17.9 °C 34222.3 hPa SW 6 km/h 6 km/h 66 % 0 mm
05:39 -14.8 °C -18 °C 34222.3 hPa SW 6 km/h 6 km/h 66 % 0 mm
05:44 -14.8 °C -17.9 °C 34222.3 hPa Calm     67 % 0 mm
05:49 -14.9 °C -18 °C 34222.3 hPa SSW 6 km/h 6 km/h 67 % 0 mm
05:54 -14.9 °C -18 °C 34222.3 hPa SW 6 km/h 6 km/h 67 % 0 mm
05:59 -14.9 °C -18 °C 34222.3 hPa West 3.1 km/h   67 % 0 mm
06:04 -14.9 °C -18 °C 34222.3 hPa West 3.1 km/h 3.1 km/h 67 % 0 mm
06:09 -14.9 °C -18 °C 34222.3 hPa Calm     67 % 0 mm
06:14 -14.9 °C -17.9 °C 34222.3 hPa Calm     68 % 0 mm
06:19 -14.9 °C -17.9 °C 34222.3 hPa NNE 6 km/h 6 km/h 68 % 0 mm
06:24 -14.9 °C -17.9 °C 34222.3 hPa NE 6 km/h 6 km/h 68 % 0 mm
06:29 -15 °C -18 °C 34222.3 hPa Calm     68 % 0 mm
06:34 -15 °C -18 °C 34222.3 hPa Calm     68 % 0 mm
06:39 -15 °C -18 °C 34222.3 hPa Calm     68 % 0 mm
06:44 -15 °C -18 °C 34256.2 hPa Calm     68 % 0 mm
06:49 -15 °C -17.9 °C 34256.2 hPa Calm     69 % 0 mm
06:54 -15 °C -17.9 °C 34256.2 hPa Calm     69 % 0 mm
06:59 -15 °C -17.9 °C 34256.2 hPa Calm     69 % 0 mm
07:04 -15.1 °C -17.9 °C 34256.2 hPa Calm     69 % 0 mm
07:09 -15.1 °C -17.9 °C 34256.2 hPa NE 6 km/h 6 km/h 69 % 0 mm
07:14 -15.1 °C -18.1 °C 34222.3 hPa NE 6 km/h 6 km/h 68 % 0 mm
07:19 -15.1 °C -18.1 °C 34222.3 hPa NW 6 km/h 6 km/h 68 % 0 mm
07:24 -15.1 °C -18.1 °C 34222.3 hPa NNW 6 km/h 6 km/h 68 % 0 mm
07:29 -15.2 °C -18.2 °C 34256.2 hPa ENE 9 km/h 9 km/h 68 % 0 mm
07:34 -15.2 °C -18.2 °C 34256.2 hPa ENE 6 km/h 6 km/h 68 % 0 mm
07:39 -15.2 °C -18.2 °C 34256.2 hPa ESE 6 km/h 6 km/h 68 % 0 mm
07:44 -15.2 °C -18.3 °C 34256.2 hPa NNE 9 km/h 9 km/h 67 % 0 mm
07:49 -15.2 °C -18.3 °C 34256.2 hPa NNW 11.9 km/h 11.9 km/h 67 % 0 mm
07:54 -15.2 °C -18.3 °C 34256.2 hPa NE 11.9 km/h 11.9 km/h 67 % 0 mm
07:59 -15.2 °C -18.3 °C 34256.2 hPa NNW 9 km/h 9 km/h 67 % 0 mm
08:04 -15.2 °C -18.3 °C 34256.2 hPa NNE 6.8 km/h 6.8 km/h 67 % 0 mm
08:09 -15.2 °C -18.3 °C 34256.2 hPa ESE 9 km/h 9 km/h 67 % 0 mm
08:14 -15.2 °C -18.3 °C 34222.3 hPa West 9 km/h 9 km/h 67 % 0 mm
08:19 -15.2 °C -18.3 °C 34222.3 hPa NE 9 km/h 9 km/h 67 % 0 mm
08:24 -15.2 °C -18.3 °C 34222.3 hPa SW 9 km/h 9 km/h 67 % 0 mm
08:29 -15.1 °C -18.2 °C 34256.2 hPa ENE 9 km/h 9 km/h 67 % 0 mm
08:34 -15.1 °C -18.2 °C 34256.2 hPa NNW 11.9 km/h 11.9 km/h 67 % 0 mm
08:39 -15.1 °C -18.2 °C 34256.2 hPa NE 12.7 km/h 12.7 km/h 67 % 0 mm
08:44 -15.1 °C -18.2 °C 34256.2 hPa ENE 9 km/h 9 km/h 67 % 0 mm
08:49 -15 °C -18.1 °C 34256.2 hPa NNE 6.3 km/h 6.3 km/h 67 % 0 mm
08:54 -14.9 °C -18.1 °C 34256.2 hPa ESE 11.9 km/h 11.9 km/h 67 % 0 mm
08:59 -14.9 °C -18 °C 34256.2 hPa ENE 9 km/h 9 km/h 67 % 0 mm
09:04 -14.9 °C -18 °C 34256.2 hPa NNE 9 km/h 9 km/h 67 % 0 mm
09:09 -14.8 °C -17.9 °C 34256.2 hPa NNW 11.9 km/h 11.9 km/h 67 % 0 mm
09:14 -14.8 °C -17.9 °C 34256.2 hPa ENE 9 km/h 9 km/h 67 % 0 mm
09:19 -14.7 °C -17.9 °C 34256.2 hPa NNE 6 km/h 6 km/h 67 % 0 mm
09:24 -14.7 °C -17.9 °C 34256.2 hPa ENE 11.9 km/h 11.9 km/h 67 % 0 mm
09:29 -14.7 °C -17.8 °C 34256.2 hPa NE 6.3 km/h 6.3 km/h 67 % 0 mm
09:34 -14.7 °C -17.8 °C 34256.2 hPa ENE 6 km/h 6 km/h 67 % 0 mm
09:39 -14.7 °C -17.8 °C 34256.2 hPa NNE 6 km/h 6 km/h 67 % 0 mm
09:44 -14.7 °C -17.8 °C 34256.2 hPa NNW 11.9 km/h 11.9 km/h 67 % 0 mm
09:49 -14.7 °C -17.8 °C 34256.2 hPa NNE 11.9 km/h 11.9 km/h 67 % 0 mm
09:54 -14.7 °C -17.8 °C 34256.2 hPa NNE 15 km/h 15 km/h 67 % 0 mm
09:59 -14.6 °C -17.7 °C 34256.2 hPa NNE 11.9 km/h 11.9 km/h 67 % 0 mm
10:04 -14.6 °C -17.7 °C 34256.2 hPa North 9 km/h 9 km/h 68 % 0 mm
10:09 -14.6 °C -17.7 °C 34256.2 hPa NNE 6 km/h 6 km/h 68 % 0 mm
10:14 -14.6 °C -17.7 °C 34256.2 hPa NNE 11.9 km/h 11.9 km/h 68 % 0 mm
10:19 -14.6 °C -17.7 °C 34256.2 hPa ENE 11.9 km/h 11.9 km/h 68 % 0 mm
10:24 -14.6 °C -17.7 °C 34256.2 hPa NE 6.3 km/h 6.3 km/h 68 % 0 mm
10:30 -14.6 °C -17.7 °C 34256.2 hPa NNE 15 km/h 15 km/h 68 % 0 mm
10:34 -14.7 °C -17.7 °C 34256.2 hPa ENE 11.9 km/h 11.9 km/h 68 % 0 mm
10:39 -14.7 °C -17.7 °C 34256.2 hPa ENE 6.3 km/h 7.6 km/h 68 % 0 mm
10:44 -14.7 °C -17.6 °C 34293.4 hPa ENE 12.7 km/h 12.7 km/h 69 % 0 mm
10:49 -14.7 °C -17.6 °C 34293.4 hPa NNE 15 km/h 15 km/h 69 % 0 mm
10:54 -14.7 °C -17.6 °C 34293.4 hPa NNE 17.9 km/h 17.9 km/h 69 % 0 mm
10:59 -14.7 °C -17.6 °C 34293.4 hPa NNE 11.9 km/h 11.9 km/h 70 % 0 mm
11:04 -14.7 °C -17.6 °C 34293.4 hPa NNE 17.9 km/h 17.9 km/h 70 % 0 mm
11:09 -14.7 °C -17.6 °C 34293.4 hPa North 11.9 km/h 11.9 km/h 70 % 0 mm
11:15 -14.7 °C -17.4 °C 34256.2 hPa ENE 9 km/h 9 km/h 70 % 0 mm
11:20 -14.7 °C -17.4 °C 34256.2 hPa NNE 9.8 km/h 9.8 km/h 70 % 0 mm
11:25 -14.7 °C -17.3 °C 34256.2 hPa NNE 15 km/h 15 km/h 71 % 0 mm
11:30 -14.7 °C -17.3 °C 34256.2 hPa NNE 11.9 km/h 11.9 km/h 71 % 0 mm
11:35 -14.7 °C -17.3 °C 34256.2 hPa NNE 6.8 km/h 6.8 km/h 71 % 0 mm
11:40 -14.7 °C -17.3 °C 34256.2 hPa NE 15 km/h 15 km/h 72 % 0 mm
11:45 -14.7 °C -17.3 °C 34293.4 hPa NE 9 km/h 9 km/h 72 % 0 mm
11:50 -14.7 °C -17.3 °C 34293.4 hPa ENE 11.9 km/h 11.9 km/h 72 % 0 mm
11:55 -14.7 °C -17.2 °C 34293.4 hPa NNE 9 km/h 9 km/h 73 % 0 mm
12:00 -14.7 °C -17.2 °C 34256.2 hPa NE 10.3 km/h 10.3 km/h 73 % 0 mm
12:05 -14.7 °C -17.2 °C 34256.2 hPa NNE 9 km/h 9 km/h 73 % 0 mm
12:10 -14.7 °C -17.1 °C 34256.2 hPa NNE 6.3 km/h 6.3 km/h 74 % 0 mm
12:15 -14.7 °C -17.1 °C 34256.2 hPa NE 6.8 km/h 6.8 km/h 74 % 0 mm
12:20 -14.7 °C -17 °C 34256.2 hPa Calm     75 % 0 mm
12:25 -14.7 °C -16.9 °C 34256.2 hPa NNE 6 km/h 6 km/h 75 % 0 mm
12:30 -14.7 °C -16.8 °C 34293.4 hPa NE 3.1 km/h   76 % 0 mm
12:35 -14.7 °C -16.8 °C 34293.4 hPa NNE 6 km/h 6 km/h 76 % 0 mm
12:40 -14.6 °C -16.8 °C 34293.4 hPa NNE 3.1 km/h 3.7 km/h 76 % 0 mm
12:45 -14.6 °C -16.7 °C 34256.2 hPa ENE 6 km/h   77 % 0 mm
12:50 -14.6 °C -16.7 °C 34256.2 hPa NNE 6.8 km/h 6.8 km/h 77 % 0 mm
12:55 -14.6 °C -16.7 °C 34256.2 hPa North 8 km/h 8 km/h 77 % 25.4 mm
13:00 -14.6 °C -16.7 °C 34256.2 hPa ENE 6 km/h 6 km/h 77 % 25.4 mm
13:05 -14.6 °C -16.7 °C 34256.2 hPa NNE 11.9 km/h 11.9 km/h 77 % 25.4 mm
13:10 -14.6 °C -16.7 °C 34256.2 hPa NNE 11.9 km/h 11.9 km/h 77 % 25.4 mm
13:15 -14.6 °C -16.7 °C 34256.2 hPa NNE 9 km/h 9 km/h 77 % 25.4 mm
13:20 -14.6 °C -16.6 °C 34256.2 hPa ENE 9 km/h 9 km/h 78 % 25.4 mm
13:25 -14.7 °C -16.6 °C 34256.2 hPa NNE 11.9 km/h 11.9 km/h 78 % 25.4 mm
13:30 -14.7 °C -16.6 °C 34222.3 hPa NNE 9 km/h 9 km/h 78 % 25.4 mm
13:35 -14.7 °C -16.6 °C 34222.3 hPa NNE 6.8 km/h 6.8 km/h 79 % 50.8 mm
13:40 -14.7 °C -16.6 °C 34222.3 hPa ENE 9 km/h 9 km/h 79 % 50.8 mm
13:45 -14.6 °C -16.5 °C 34256.2 hPa NNE 9 km/h 9 km/h 79 % 50.8 mm
13:50 -14.6 °C -16.5 °C 34256.2 hPa NNE 9 km/h 9 km/h 79 % 50.8 mm
13:55 -14.6 °C -16.5 °C 34256.2 hPa NNE 9.3 km/h 9.3 km/h 79 % 25.4 mm
14:00 -14.6 °C -16.3 °C 34256.2 hPa NE 9 km/h 9 km/h 80 % 25.4 mm
14:05 -14.6 °C -16.3 °C 34256.2 hPa NNE 15 km/h 15 km/h 80 % 25.4 mm
14:10 -14.5 °C -16.3 °C 34256.2 hPa NNE 9 km/h 9.3 km/h 80 % 25.4 mm
14:15 -14.5 °C -16.3 °C 34256.2 hPa NNE 11.9 km/h 11.9 km/h 80 % 25.4 mm
14:20 -14.4 °C -16.2 °C 34256.2 hPa NNE 9 km/h 9 km/h 80 % 50.8 mm
14:25 -14.4 °C -16.2 °C 34256.2 hPa NE 11.9 km/h 11.9 km/h 80 % 50.8 mm
14:30 -14.4 °C -16.2 °C 34222.3 hPa NNE 10.3 km/h 10.3 km/h 80 % 50.8 mm
14:35 -14.4 °C -16.2 °C 34222.3 hPa NE 15.3 km/h 16.1 km/h 80 % 25.4 mm
14:40 -14.4 °C -16.2 °C 34222.3 hPa NNE 14.5 km/h 14.5 km/h 80 % 25.4 mm
14:45 -14.4 °C -16.2 °C 34256.2 hPa NNE 11.9 km/h 11.9 km/h 80 % 50.8 mm
14:50 -14.4 °C -16.1 °C 34256.2 hPa NNE 9 km/h 9 km/h 81 % 50.8 mm
14:55 -14.4 °C -16.1 °C 34256.2 hPa NNE 9 km/h 9 km/h 81 % 50.8 mm
15:00 -14.4 °C -16.1 °C 34198.6 hPa ENE 9 km/h 9 km/h 81 % 50.8 mm
15:05 -14.4 °C -16.1 °C 34198.6 hPa NNE 11.9 km/h 11.9 km/h 81 % 50.8 mm
15:10 -14.4 °C -16.1 °C 34198.6 hPa ENE 8 km/h 8 km/h 81 % 50.8 mm
15:15 -14.4 °C -16.1 °C 34222.3 hPa NNE 15 km/h 15 km/h 81 % 76.2 mm
15:20 -14.4 °C -16.1 °C 34222.3 hPa East 11.9 km/h 11.9 km/h 81 % 50.8 mm
15:25 -14.4 °C -16.1 °C 34222.3 hPa NNE 10.3 km/h 10.3 km/h 81 % 50.8 mm
15:30 -14.4 °C -16.1 °C 34222.3 hPa ENE 15 km/h 15 km/h 81 % 50.8 mm
15:35 -14.4 °C -16.1 °C 34222.3 hPa NNE 15 km/h 15 km/h 81 % 50.8 mm
15:40 -14.4 °C -16.1 °C 34222.3 hPa NE 12.2 km/h 12.2 km/h 81 % 50.8 mm
15:45 -14.4 °C -16.1 °C 34222.3 hPa ENE 15.3 km/h 15.3 km/h 81 % 25.4 mm
15:50 -14.4 °C -16.1 °C 34222.3 hPa NNE 16.1 km/h 16.1 km/h 81 % 25.4 mm
15:55 -14.4 °C -16.1 °C 34222.3 hPa NNE 15 km/h 15 km/h 81 % 58.42 mm
16:00 -14.4 °C -16.1 °C 34222.3 hPa NNE 15 km/h 15 km/h 81 % 58.42 mm
16:05 -14.4 °C -16 °C 34222.3 hPa ENE 15 km/h 15 km/h 82 % 58.42 mm
16:10 -14.4 °C -16 °C 34222.3 hPa ENE 14 km/h 14 km/h 82 % 83.82 mm
16:15 -14.5 °C -16.1 °C 34256.2 hPa NNE 16.1 km/h 16.1 km/h 82 % 58.42 mm
16:20 -14.5 °C -16.1 °C 34256.2 hPa NNE 11.9 km/h 11.9 km/h 82 % 83.82 mm
16:25 -14.5 °C -16.1 °C 34256.2 hPa ENE 11.9 km/h 11.9 km/h 82 % 83.82 mm
16:30 -14.5 °C -16 °C 34256.2 hPa ENE 9 km/h 9 km/h 83 % 109.22 mm
16:35 -14.5 °C -16 °C 34256.2 hPa ENE 3.7 km/h   83 % 134.62 mm
16:40 -14.5 °C -16 °C 34256.2 hPa ESE 6 km/h 6.8 km/h 83 % 134.62 mm
16:45 -14.5 °C -16 °C 34256.2 hPa NNE 11.9 km/h 11.9 km/h 83 % 160.02 mm
16:50 -14.5 °C -16 °C 34256.2 hPa ENE 11.9 km/h 11.9 km/h 83 % 160.02 mm
16:55 -14.5 °C -16 °C 34256.2 hPa East 11.9 km/h 11.9 km/h 83 % 129.54 mm
17:00 -14.5 °C -16 °C 34256.2 hPa East 9 km/h 9 km/h 83 % 154.94 mm
17:05 -14.5 °C -16 °C 34256.2 hPa ESE 9 km/h 9 km/h 83 % 154.94 mm
17:10 -14.5 °C -16 °C 34256.2 hPa ESE 3.1 km/h   83 % 129.54 mm
17:15 -14.4 °C -15.8 °C 34256.2 hPa ENE 5.6 km/h 5.6 km/h 84 % 134.62 mm
17:20 -14.5 °C -15.9 °C 34256.2 hPa Calm     84 % 134.62 mm
17:25 -14.5 °C -15.9 °C 34256.2 hPa ESE 11.9 km/h 11.9 km/h 84 % 134.62 mm
17:30 -14.5 °C -15.9 °C 34256.2 hPa NNE 6.3 km/h 6.3 km/h 84 % 109.22 mm
17:35 -14.6 °C -15.9 °C 34256.2 hPa ESE 15.6 km/h 15.6 km/h 84 % 83.82 mm
17:40 -14.6 °C -16.1 °C 34256.2 hPa East 9 km/h 9 km/h 83 % 109.22 mm
17:45 -14.6 °C -16.1 °C 34256.2 hPa ENE 11.9 km/h 11.9 km/h 83 % 83.82 mm
17:50 -14.7 °C -16.2 °C 34256.2 hPa NE 9.3 km/h 9.3 km/h 83 % 109.22 mm
17:55 -14.7 °C -16.1 °C 34256.2 hPa North 9.3 km/h 9.3 km/h 84 % 109.22 mm
18:00 -14.7 °C -16.1 °C 34256.2 hPa NE 6.3 km/h 6.3 km/h 84 % 83.82 mm
18:05 -14.7 °C -16.1 °C 34256.2 hPa NNE 6 km/h 6 km/h 84 % 83.82 mm
18:10 -14.7 °C -16.1 °C 34256.2 hPa NNE 9 km/h 9 km/h 84 % 83.82 mm
18:15 -14.7 °C -16.1 °C 34256.2 hPa ENE 3.1 km/h 4.2 km/h 84 % 50.8 mm
18:20 -14.8 °C -16.2 °C 34256.2 hPa ENE 3.7 km/h 3.7 km/h 84 % 50.8 mm
18:25 -14.8 °C -16.2 °C 34256.2 hPa ENE 6 km/h 6 km/h 84 % 50.8 mm
18:30 -14.8 °C -16.2 °C 34222.3 hPa NNE 9.3 km/h 9.3 km/h 84 % 50.8 mm
18:35 -14.8 °C -16.2 °C 34222.3 hPa ENE 11.9 km/h 11.9 km/h 84 % 50.8 mm
18:40 -14.8 °C -16.2 °C 34222.3 hPa NE 9 km/h 9 km/h 84 % 25.4 mm
18:45 -14.8 °C -16.3 °C 34256.2 hPa ENE 9 km/h 9 km/h 83 % 25.4 mm
18:50 -14.8 °C -16.3 °C 34256.2 hPa NE 11.9 km/h 11.9 km/h 83 % 0 mm
18:55 -14.8 °C -16.3 °C 34256.2 hPa NE 11.9 km/h 11.9 km/h 83 % 0 mm
19:00 -14.8 °C -16.3 °C 34198.6 hPa NNE 15 km/h 15 km/h 83 % 0 mm
19:05 -14.8 °C -16.3 °C 34198.6 hPa NNE 15 km/h 15 km/h 83 % 0 mm
19:10 -14.8 °C -16.3 °C 34198.6 hPa NE 11.9 km/h 11.9 km/h 83 % 0 mm
19:15 -14.8 °C -16.3 °C 34222.3 hPa ENE 15 km/h 15 km/h 83 % 0 mm
19:20 -14.8 °C -16.2 °C 34222.3 hPa NE 11.9 km/h 11.9 km/h 84 % 0 mm
19:25 -14.8 °C -16.2 °C 34222.3 hPa NNE 9 km/h 9.8 km/h 84 % 0 mm
19:30 -14.8 °C -16.2 °C 34222.3 hPa NNE 9 km/h 9 km/h 84 % 0 mm
19:35 -14.8 °C -16.2 °C 34222.3 hPa NNE 9 km/h 9 km/h 84 % 0 mm
19:40 -14.8 °C -16.2 °C 34222.3 hPa NNE 7.6 km/h 7.6 km/h 84 % 109.22 mm
19:45 -14.8 °C -16.2 °C 34222.3 hPa NNE 9 km/h 9 km/h 84 % 109.22 mm
19:50 -14.8 °C -16.2 °C 34222.3 hPa NE 6 km/h 6 km/h 84 % 109.22 mm
19:55 -14.8 °C -16.2 °C 34222.3 hPa NNE 9 km/h 9 km/h 84 % 109.22 mm
20:00 -14.8 °C -16.2 °C 34222.3 hPa NNE 9 km/h 9 km/h 84 % 129.54 mm
20:05 -14.8 °C -16.2 °C 34222.3 hPa NE 6 km/h 6 km/h 84 % 129.54 mm
20:10 -14.9 °C -16.3 °C 34222.3 hPa NE 9 km/h 9 km/h 84 % 129.54 mm
20:15 -14.9 °C -16.3 °C 34222.3 hPa NE 6 km/h 6.8 km/h 84 % 129.54 mm
20:20 -14.9 °C -16.3 °C 34222.3 hPa Calm     84 % 129.54 mm
20:25 -14.9 °C -16.3 °C 34222.3 hPa NNE 6.8 km/h   84 % 129.54 mm
20:30 -14.9 °C -16.3 °C 34198.6 hPa ENE 6 km/h 6 km/h 84 % 129.54 mm
20:35 -15 °C -16.4 °C 34198.6 hPa NNE 6.8 km/h 6.8 km/h 84 % 129.54 mm
20:40 -15 °C -16.4 °C 34198.6 hPa NNE 6 km/h 6 km/h 84 % 20.32 mm
20:45 -15 °C -16.4 °C 34198.6 hPa North 6 km/h 6 km/h 84 % 20.32 mm
20:50 -15.1 °C -16.4 °C 34198.6 hPa NNE 9 km/h 9 km/h 84 % 20.32 mm
20:55 -15.1 °C -16.5 °C 34198.6 hPa NNE 9 km/h 9 km/h 84 % 20.32 mm
21:00 -15.1 °C -16.5 °C 34198.6 hPa NE 9.8 km/h 9.8 km/h 84 % 0 mm
21:05 -15.1 °C -16.5 °C 34198.6 hPa NNE 11.9 km/h 11.9 km/h 84 % 0 mm
21:10 -15.1 °C -16.5 °C 34198.6 hPa NE 9 km/h   84 % 0 mm
21:15 -15.1 °C -16.5 °C 34198.6 hPa NE 9 km/h 9 km/h 84 % 0 mm
21:20 -15.2 °C -16.6 °C 34198.6 hPa NNE 6.3 km/h 6.3 km/h 84 % 0 mm
21:25 -15.2 °C -16.6 °C 34198.6 hPa NNE 6 km/h   84 % 0 mm
21:30 -15.6 °C -16.7 °C 34130.9 hPa NNE 2.6 km/h 10.3 km/h 86 % 0 mm
21:31 -15.2 °C -16.6 °C 34222.3 hPa NNE 6 km/h 6 km/h 84 % 0 mm
21:36 -15.2 °C -16.6 °C 34222.3 hPa NNE 6 km/h 6 km/h 84 % 0 mm
21:40 -15.5 °C -16.7 °C 34130.9 hPa NNE 5.1 km/h 12.9 km/h 86 % 0 mm
21:41 -15.2 °C -16.4 °C 34222.3 hPa NNE 3.1 km/h 3.1 km/h 85 % 0 mm
21:46 -15.2 °C -16.4 °C 34222.3 hPa NNE 6 km/h 6 km/h 85 % 0 mm
21:50 -15.3 °C -16.4 °C 34130.9 hPa NE 5.1 km/h 10.3 km/h 87 % 0 mm
21:51 -15.2 °C -16.4 °C 34222.3 hPa NE 11.9 km/h 11.9 km/h 85 % 0 mm
21:56 -15.2 °C -16.4 °C 34222.3 hPa NNE 6 km/h   85 % 0 mm
22:00 -15.3 °C -16.4 °C 34130.9 hPa NE 5.1 km/h 7.7 km/h 87 % 0 mm
22:01 -15.2 °C -16.5 °C 34222.3 hPa NE 9.8 km/h 9.8 km/h 85 % 0 mm
22:06 -15.2 °C -16.5 °C 34222.3 hPa NE 9 km/h 9 km/h 85 % 0 mm
22:10 -15.3 °C -16.4 °C 34130.9 hPa NE 2.6 km/h 5.1 km/h 87 % 0 mm
22:11 -15.2 °C -16.5 °C 34222.3 hPa NNE 6 km/h 6 km/h 85 % 0 mm
22:16 -15.2 °C -16.5 °C 34222.3 hPa ENE 6 km/h 6 km/h 85 % 0 mm
22:20 -15.3 °C -16.4 °C 34130.9 hPa NNE 7.7 km/h 7.7 km/h 87 % 0 mm
22:21 -15.2 °C -16.5 °C 34222.3 hPa ENE 3.1 km/h   85 % 0 mm
22:26 -15.2 °C -16.4 °C 34222.3 hPa NNE 3.7 km/h   85 % 109.22 mm
22:30 -15.3 °C -16.4 °C 34130.9 hPa NNE 7.7 km/h 7.7 km/h 87 % 0 mm
22:31 -15.2 °C -16.4 °C 34256.2 hPa NNE 3.1 km/h   85 % 109.22 mm
22:36 -15.2 °C -16.4 °C 34256.2 hPa NE 3.1 km/h   85 % 134.62 mm
22:40 -15.2 °C -16.3 °C 34097 hPa NE 7.7 km/h 12.9 km/h 87 % 0 mm
22:41 -15.2 °C -16.4 °C 34256.2 hPa NNE 3.1 km/h   85 % 134.62 mm
22:46 -15.2 °C -16.4 °C 34222.3 hPa Calm     85 % 134.62 mm
22:50 -15.3 °C -16.4 °C 34097 hPa NNE 7.7 km/h 12.9 km/h 87 % 0 mm
22:51 -15.2 °C -16.4 °C 34222.3 hPa North 3.1 km/h   85 % 134.62 mm
22:56 -15.2 °C -16.5 °C 34222.3 hPa Calm     85 % 134.62 mm
23:00 -15.2 °C -16.3 °C 34097 hPa NNE 7.7 km/h 15.6 km/h 87 % 0 mm
23:01 -15.2 °C -16.5 °C 34222.3 hPa WNW 6 km/h 6 km/h 85 % 134.62 mm
23:06 -15.2 °C -16.4 °C 34222.3 hPa Calm     85 % 134.62 mm
23:10 -15.1 °C -16.1 °C 34097 hPa NNE 5.1 km/h 7.7 km/h 88 % 0 mm
23:11 -15.2 °C -16.4 °C 34222.3 hPa Calm     85 % 134.62 mm
23:16 -15.2 °C -16.4 °C 34256.2 hPa WSW 6 km/h 6 km/h 85 % 134.62 mm
23:21 -15.2 °C -16.4 °C 34256.2 hPa SW 6 km/h   85 % 134.62 mm
23:26 -15.2 °C -16.4 °C 34256.2 hPa Calm     85 % 25.4 mm
23:30 -15.1 °C -16.1 °C 34130.9 hPa WSW 2.6 km/h 7.7 km/h 88 % 0 mm
23:31 -15.2 °C -16.5 °C 34222.3 hPa NW 3.1 km/h 3.1 km/h 85 % 25.4 mm
23:36 -15.2 °C -16.4 °C 34222.3 hPa NNE 9 km/h 9 km/h 85 % 0 mm
23:40 -15.1 °C -16.1 °C 34097 hPa North 2.6 km/h 2.6 km/h 88 % 0 mm
23:41 -15.2 °C -16.4 °C 34222.3 hPa ENE 9 km/h 9 km/h 85 % 0 mm
23:46 -15.2 °C -16.5 °C 34198.6 hPa NNE 9.3 km/h 9.3 km/h 85 % 0 mm
23:50 -15.1 °C -16.1 °C 34097 hPa NNE 7.7 km/h 10.3 km/h 88 % 0 mm
23:51 -15.2 °C -16.5 °C 34198.6 hPa NNE 9 km/h 9 km/h 85 % 0 mm
23:56 -15.3 °C -16.6 °C 34198.6 hPa NNE 6 km/h 6 km/h 85 % 0 mm
Meteo Sesrovires
Elogis d' Weather Underground - 2 mb

Guio original per  Jim McMurry - jmcmurry@mwt.net Adaptat per a la plantilla per  Wim van der Kuil - Leuven-Template.eu

Trobareu la nostra informacio del temps tambe a:

Weather Underground

AWEKAS